Time;durP1;ratioP1;P1;durP2;ratioP2;P2;SDS_P1;SDS_P2;PMS_P1;PMS_P2;Temp;Humidity;BMP_temperature;BMP_pressure;BME280_temperature;BME280_humidity;BME280_pressure;Samples;Min_cycle;Max_cycle;Signal;HPM_P1;HPM_P2
2022/11/01 00:01:59;;;;;;;34.58;15.23;;;;;;;10.37;87.61;98378.34;1713189;83;21486;-73
2022/11/01 00:04:26;;;;;;;24.63;14.20;;;;;;;10.36;87.58;98379.69;1706624;82;20997;-68
2022/11/01 00:06:53;;;;;;;27.13;15.28;;;;;;;10.35;87.41;98378.84;1712730;82;20985;-70
2022/11/01 00:09:19;;;;;;;25.20;14.30;;;;;;;10.36;87.48;98383.66;1715543;82;21366;-71
2022/11/01 00:11:46;;;;;;;27.95;14.35;;;;;;;10.32;87.46;98386.84;1712370;81;21671;-72
2022/11/01 00:14:16;;;;;;;26.02;14.43;;;;;;;10.29;87.48;98382.92;1715718;81;20988;-72
2022/11/01 00:16:43;;;;;;;25.60;14.60;;;;;;;10.26;87.54;98387.84;1733166;82;21052;-73
2022/11/01 00:19:10;;;;;;;26.87;14.55;;;;;;;10.22;87.26;98387.95;1732474;82;20989;-72
2022/11/01 00:21:37;;;;;;;29.67;15.18;;;;;;;10.21;87.41;98384.89;1737668;81;20987;-72
2022/11/01 00:24:05;;;;;;;24.10;13.45;;;;;;;10.20;87.40;98382.69;1743543;81;20988;-72
2022/11/01 00:26:31;;;;;;;26.60;14.93;;;;;;;10.19;87.43;98383.59;1737916;81;21025;-73
2022/11/01 00:28:58;;;;;;;27.55;14.47;;;;;;;10.16;87.47;98388.51;1738948;81;21003;-73
2022/11/01 00:31:25;;;;;;;26.52;15.05;;;;;;;10.12;87.51;98384.17;1747535;81;20976;-71
2022/11/01 00:33:52;;;;;;;26.85;15.15;;;;;;;10.09;87.24;98383.38;1737227;81;20964;-72
2022/11/01 00:36:18;;;;;;;28.15;15.03;;;;;;;10.06;87.35;98382.11;1709394;83;21458;-72
2022/11/01 00:38:51;;;;;;;28.30;15.80;;;;;;;10.03;87.18;98383.93;1735068;81;21396;-73
2022/11/01 00:41:22;;;;;;;32.30;16.87;;;;;;;10.01;87.47;98380.90;1742155;81;21039;-73
2022/11/01 00:43:48;;;;;;;30.68;15.50;;;;;;;9.99;87.38;98380.04;1733998;81;21062;-74
2022/11/01 00:46:16;;;;;;;33.70;16.70;;;;;;;9.97;87.74;98378.73;1740202;81;21043;-73
2022/11/01 00:48:43;;;;;;;28.27;16.52;;;;;;;9.97;87.77;98380.06;1737947;81;20991;-72
2022/11/01 00:51:10;;;;;;;28.57;15.25;;;;;;;9.96;87.76;98377.00;1726348;81;21402;-73
2022/11/01 00:53:36;;;;;;;30.25;15.72;;;;;;;9.94;87.48;98374.85;1731771;81;21390;-73
2022/11/01 00:56:06;;;;;;;31.60;16.17;;;;;;;9.92;87.42;98372.67;1732421;81;21036;-73
2022/11/01 00:58:33;;;;;;;28.30;15.10;;;;;;;9.91;87.54;98374.91;1732318;81;21367;-72
2022/11/01 01:00:59;;;;;;;27.62;15.00;;;;;;;9.83;88.06;98371.09;1735201;81;20980;-71
2022/11/01 01:03:26;;;;;;;31.10;16.15;;;;;;;9.81;87.54;98362.33;1751859;81;21011;-72
2022/11/01 01:05:54;;;;;;;29.60;15.25;;;;;;;9.81;87.73;98370.70;1733565;81;21481;-73
2022/11/01 01:08:21;;;;;;;28.15;13.22;;;;;;;9.84;87.67;98370.66;1741124;81;20928;-72
2022/11/01 01:10:49;;;;;;;28.50;13.68;;;;;;;9.86;87.75;98368.84;1732899;81;21004;-72
2022/11/01 01:13:16;;;;;;;26.27;14.23;;;;;;;9.86;88.06;98375.02;1742686;81;21035;-72
2022/11/01 01:15:43;;;;;;;21.55;12.18;;;;;;;9.86;88.04;98371.48;1739733;81;21012;-73
2022/11/01 01:18:10;;;;;;;23.65;13.50;;;;;;;9.85;88.25;98370.59;1732416;81;21020;-72
2022/11/01 01:20:37;;;;;;;28.10;13.80;;;;;;;9.84;88.02;98377.27;1747155;81;20932;-72
2022/11/01 01:23:04;;;;;;;24.85;12.63;;;;;;;9.86;88.35;98370.16;1745702;81;20952;-72
2022/11/01 01:25:31;;;;;;;22.85;12.63;;;;;;;9.92;88.34;98369.17;1728423;81;21011;-72
2022/11/01 01:27:57;;;;;;;25.10;12.80;;;;;;;9.94;88.16;98371.32;1738135;81;21417;-72
2022/11/01 01:30:24;;;;;;;20.55;11.90;;;;;;;9.90;88.11;98369.20;1744078;81;20961;-73
2022/11/01 01:32:50;;;;;;;23.20;12.80;;;;;;;9.91;88.26;98364.31;1744594;81;21417;-72
2022/11/01 01:35:17;;;;;;;24.80;12.05;;;;;;;9.94;88.21;98366.02;1746732;81;21035;-72
2022/11/01 01:37:44;;;;;;;21.15;11.73;;;;;;;9.95;88.21;98363.79;1733813;81;21008;-72
2022/11/01 01:40:11;;;;;;;19.57;12.55;;;;;;;9.99;88.55;98365.47;1733730;81;20973;-72
2022/11/01 01:42:40;;;;;;;19.75;13.00;;;;;;;10.08;88.60;98369.73;1730596;81;21020;-73
2022/11/01 01:45:30;;;;;;;22.22;12.73;;;;;;;10.11;88.37;98365.23;1721524;81;21039;-72
2022/11/01 01:48:02;;;;;;;21.23;11.55;;;;;;;10.16;88.25;98365.11;1725064;81;20975;-72
2022/11/01 01:50:46;;;;;;;20.68;11.28;;;;;;;10.12;87.97;98364.31;1727245;81;21470;-72
2022/11/01 01:53:36;;;;;;;24.00;12.85;;;;;;;10.14;87.71;98361.64;1719276;81;20960;-73
2022/11/01 01:56:27;;;;;;;21.02;12.50;;;;;;;10.10;87.66;98362.61;1715628;81;20960;-72
2022/11/01 01:59:02;;;;;;;22.52;12.18;;;;;;;10.02;87.62;98361.45;1729308;81;20980;-73
2022/11/01 02:01:30;;;;;;;23.70;11.93;;;;;;;9.95;87.62;98359.38;1728333;81;21417;-72
2022/11/01 02:03:58;;;;;;;21.20;12.70;;;;;;;9.88;87.33;98359.95;1733755;81;21027;-73
2022/11/01 02:06:25;;;;;;;20.77;13.08;;;;;;;9.84;87.47;98362.72;1717791;81;21011;-73
2022/11/01 02:08:56;;;;;;;21.25;12.05;;;;;;;9.79;87.47;98358.82;1688008;82;21003;-73
2022/11/01 02:11:22;;;;;;;17.62;10.90;;;;;;;9.78;87.28;98361.05;1705274;81;21020;-73
2022/11/01 02:13:50;;;;;;;18.17;11.12;;;;;;;9.73;87.39;98362.48;1706004;82;21039;-73
2022/11/01 02:16:45;;;;;;;24.57;12.18;;;;;;;9.69;87.17;98359.91;1701585;82;21008;-73
2022/11/01 02:19:32;;;;;;;;;;;;;;;9.62;87.34;98362.69;1698721;82;21020;-72
2022/11/01 02:22:18;;;;;;;19.77;11.38;;;;;;;9.54;87.33;98362.43;1712388;82;20115;-73
2022/11/01 02:24:53;;;;;;;21.82;11.30;;;;;;;9.43;87.98;98366.59;1718218;82;21080;-72
2022/11/01 02:27:33;;;;;;;17.85;11.57;;;;;;;9.35;87.89;98366.27;1722039;82;21358;-72
2022/11/01 02:30:17;;;;;;;17.17;10.88;;;;;;;9.30;87.78;98367.28;1729012;82;20962;-72
2022/11/01 02:33:04;;;;;;;20.30;12.40;;;;;;;9.26;88.02;98361.62;1716753;82;20940;-72
2022/11/01 02:36:01;;;;;;;17.10;11.00;;;;;;;9.21;88.52;98365.22;1742218;81;21051;-73
2022/11/01 02:38:36;;;;;;;18.17;10.82;;;;;;;9.12;88.57;98368.02;1700904;82;20976;-73
2022/11/01 02:41:10;;;;;;;17.70;11.20;;;;;;;9.03;89.37;98371.70;1701837;82;21039;-70
2022/11/01 02:44:01;;;;;;;18.23;11.95;;;;;;;8.97;89.42;98371.35;1699642;82;21016;-72
2022/11/01 02:49:44;;;;;;;20.05;12.70;;;;;;;8.95;88.91;98370.95;1709077;82;20965;-73
2022/11/01 02:52:24;;;;;;;22.87;11.95;;;;;;;8.97;88.86;98370.03;1742438;82;21008;-73
2022/11/01 02:55:00;;;;;;;20.02;12.70;;;;;;;8.98;88.97;98363.84;1736788;82;20981;-73
2022/11/01 02:57:37;;;;;;;20.15;11.38;;;;;;;9.01;88.95;98372.63;1747839;82;20999;-73
2022/11/01 03:00:33;;;;;;;18.55;10.60;;;;;;;9.01;88.65;98365.55;1729501;82;21016;-73
2022/11/01 03:03:22;;;;;;;18.95;11.15;;;;;;;9.02;89.01;98368.64;1729042;82;20977;-73
2022/11/01 03:06:08;;;;;;;18.17;10.60;;;;;;;9.00;88.83;98374.86;1733939;82;20984;-73
2022/11/01 03:08:45;;;;;;;19.65;10.32;;;;;;;8.97;88.81;98371.82;1710448;82;21008;-73
2022/11/01 03:11:19;;;;;;;17.65;10.80;;;;;;;8.98;88.90;98372.23;1730886;82;21008;-72
2022/11/01 03:14:14;;;;;;;14.33;9.38;;;;;;;9.00;88.80;98372.22;1721638;82;21529;-73
2022/11/01 03:17:03;;;;;;;13.95;9.28;;;;;;;9.01;89.00;98375.28;1723876;82;20950;-73
2022/11/01 03:19:50;;;;;;;13.50;8.58;;;;;;;9.05;88.96;98378.30;1715178;82;20981;-72
2022/11/01 03:22:46;;;;;;;13.75;8.20;;;;;;;9.08;89.07;98376.46;1733190;82;21015;-74
2022/11/01 03:28:14;;;;;;;11.48;7.85;;;;;;;9.24;89.11;98370.90;1682885;85;20977;-72
2022/11/01 03:30:46;;;;;;;10.18;7.30;;;;;;;9.33;89.09;98376.45;1683342;85;20985;-72
2022/11/01 03:33:14;;;;;;;13.18;8.03;;;;;;;9.42;89.04;98377.61;1677107;85;20994;-71
2022/11/01 03:35:44;;;;;;;11.10;7.30;;;;;;;9.49;88.71;98379.70;1671435;85;21006;-72
2022/11/01 03:38:16;;;;;;;10.88;7.65;;;;;;;9.54;88.43;98376.52;1723948;82;20997;-72
2022/11/01 03:40:48;;;;;;;12.78;7.53;;;;;;;9.58;88.36;98380.84;1721982;82;21020;-72
2022/11/01 03:43:17;;;;;;;11.80;7.78;;;;;;;9.64;88.51;98373.25;1680775;85;20998;-72
2022/11/01 03:45:45;;;;;;;10.10;7.58;;;;;;;9.70;88.17;98377.53;1667873;85;21037;-72
2022/11/01 03:48:11;;;;;;;11.03;8.18;;;;;;;9.77;88.00;98380.49;1722446;82;21005;-72
2022/11/01 03:50:39;;;;;;;10.65;7.58;;;;;;;9.79;87.88;98380.00;1721100;82;21052;-72
2022/11/01 03:53:06;;;;;;;11.22;7.40;;;;;;;9.82;87.90;98375.97;1726221;82;21031;-72
2022/11/01 03:55:32;;;;;;;12.78;8.08;;;;;;;9.83;87.70;98378.16;1728675;82;21044;-72
2022/11/01 03:57:59;;;;;;;11.30;7.90;;;;;;;9.81;87.42;98372.91;1731014;82;20952;-72
2022/11/01 04:00:37;;;;;;;16.35;8.63;;;;;;;9.79;87.16;98373.38;1729515;82;21418;-73
2022/11/01 04:03:04;;;;;;;13.68;8.90;;;;;;;9.74;87.25;98372.16;1724498;82;21044;-72
2022/11/01 04:05:33;;;;;;;12.40;8.70;;;;;;;9.70;86.79;98375.77;1731402;82;21414;-71
2022/11/01 04:08:00;;;;;;;13.20;8.80;;;;;;;9.60;86.56;98369.77;1721074;82;21447;-72
2022/11/01 04:10:28;;;;;;;11.95;7.95;;;;;;;9.51;86.55;98362.89;1684009;85;21001;-72
2022/11/01 04:12:55;;;;;;;12.75;8.30;;;;;;;9.45;86.56;98370.95;1727173;82;21414;-72
2022/11/01 04:21:17;;;;;;;13.00;8.88;;;;;;;9.39;87.14;98359.17;1730697;82;21744;-73
2022/11/01 04:23:45;;;;;;;13.35;9.75;;;;;;;9.39;87.24;98361.82;1712144;82;20929;-73
2022/11/01 04:26:19;;;;;;;15.08;10.05;;;;;;;9.36;87.10;98361.87;1725264;82;21048;-73
2022/11/01 04:28:55;;;;;;;14.45;9.95;;;;;;;9.31;87.00;98364.61;1729653;82;21008;-73
2022/11/01 04:31:15;;;;;;;14.95;10.23;;;;;;;9.26;87.14;98365.12;1732960;82;21044;-73
2022/11/01 04:33:41;;;;;;;15.38;9.15;;;;;;;9.20;86.78;98364.80;1733587;82;20992;-72
2022/11/01 04:36:08;;;;;;;15.40;9.73;;;;;;;9.16;86.88;98362.22;1731570;82;20972;-72
2022/11/01 04:38:35;;;;;;;15.65;10.28;;;;;;;9.11;86.85;98364.48;1718937;82;21064;-72
2022/11/01 04:41:01;;;;;;;17.52;10.60;;;;;;;9.06;86.73;98368.98;1726656;82;20961;-72
2022/11/01 04:43:28;;;;;;;16.40;9.90;;;;;;;9.00;87.23;98366.46;1724805;82;21466;-72
2022/11/01 04:45:56;;;;;;;19.15;10.55;;;;;;;8.98;87.22;98367.80;1728685;82;21433;-72
2022/11/01 04:48:25;;;;;;;18.70;11.53;;;;;;;8.92;87.32;98369.23;1722660;82;20941;-72
2022/11/01 04:50:51;;;;;;;16.93;11.35;;;;;;;8.87;87.83;98367.12;1725289;82;20976;-73
2022/11/01 04:53:18;;;;;;;19.50;13.43;;;;;;;8.81;87.63;98361.48;1725023;82;21032;-74
2022/11/01 04:55:44;;;;;;;20.35;14.55;;;;;;;8.76;88.15;98366.44;1734958;82;21340;-73
2022/11/01 04:58:13;;;;;;;20.90;13.85;;;;;;;8.70;87.92;98362.11;1740530;81;21051;-73
2022/11/01 05:00:42;;;;;;;18.42;10.58;;;;;;;8.66;87.94;98369.66;1734009;82;20956;-72
2022/11/01 05:03:10;;;;;;;17.80;10.75;;;;;;;8.63;87.99;98369.26;1735382;81;20993;-72
2022/11/01 05:05:38;;;;;;;18.17;10.32;;;;;;;8.63;88.16;98367.09;1733981;82;21450;-72
2022/11/01 05:08:09;;;;;;;16.87;9.63;;;;;;;8.63;88.60;98369.26;1724270;82;21399;-71
2022/11/01 05:10:39;;;;;;;17.23;10.15;;;;;;;8.68;88.92;98372.70;1730691;82;20980;-72
2022/11/01 05:13:06;;;;;;;15.53;9.78;;;;;;;8.76;88.95;98367.76;1733558;82;20996;-73
2022/11/01 05:15:34;;;;;;;16.65;9.13;;;;;;;8.81;88.73;98377.33;1727791;81;20953;-73
2022/11/01 05:18:01;;;;;;;16.52;9.13;;;;;;;8.81;88.82;98379.13;1725200;81;20981;-73
2022/11/01 05:20:29;;;;;;;13.60;8.43;;;;;;;8.78;88.87;98376.52;1735322;81;21011;-73
2022/11/01 05:23:00;;;;;;;14.58;8.10;;;;;;;8.75;88.79;98376.13;1751900;81;20992;-73
2022/11/01 05:25:28;;;;;;;13.72;7.75;;;;;;;8.80;88.96;98374.74;1731648;81;21041;-72
2022/11/01 05:28:09;;;;;;;14.07;8.33;;;;;;;8.91;89.00;98381.16;1739522;81;21425;-73
2022/11/01 05:30:37;;;;;;;11.15;7.72;;;;;;;8.92;88.62;98384.21;1747974;81;21011;-73
2022/11/01 05:33:05;;;;;;;12.35;7.67;;;;;;;8.90;88.60;98384.27;1751133;81;20969;-72
2022/11/01 05:35:34;;;;;;;11.45;7.65;;;;;;;8.90;88.56;98382.05;1738077;81;21051;-72
2022/11/01 05:38:03;;;;;;;12.40;7.47;;;;;;;8.88;88.53;98382.08;1737553;81;20981;-72
2022/11/01 05:40:30;;;;;;;10.00;7.30;;;;;;;8.90;88.62;98381.62;1729171;81;20958;-72
2022/11/01 05:42:57;;;;;;;12.82;7.80;;;;;;;8.97;88.67;98380.60;1740422;81;21009;-72
2022/11/01 05:45:24;;;;;;;14.23;8.40;;;;;;;8.96;88.26;98381.95;1725419;81;21355;-72
2022/11/01 05:47:51;;;;;;;15.55;7.92;;;;;;;8.96;88.22;98388.55;1689470;85;20999;-72
2022/11/01 05:50:18;;;;;;;15.20;8.50;;;;;;;8.92;88.18;98394.78;1687740;85;21334;-73
2022/11/01 05:52:44;;;;;;;13.40;7.87;;;;;;;8.91;88.33;98395.25;1690135;85;20998;-72
2022/11/01 05:55:11;;;;;;;15.18;7.72;;;;;;;8.92;88.29;98396.11;1691583;85;20963;-72
2022/11/01 05:57:38;;;;;;;11.45;7.95;;;;;;;8.94;88.05;98396.97;1682102;84;21388;-73
2022/11/01 06:00:07;;;;;;;12.88;7.92;;;;;;;8.93;87.90;98396.55;1679429;84;21001;-72
2022/11/01 06:02:40;;;;;;;11.20;7.95;;;;;;;8.92;87.97;98400.95;1682484;84;20997;-73
2022/11/01 06:05:07;;;;;;;11.93;8.00;;;;;;;8.91;87.62;98403.19;1697418;84;21057;-72
2022/11/01 06:07:35;;;;;;;16.23;11.83;;;;;;;8.88;87.67;98401.05;1684942;84;21442;-72
2022/11/01 06:10:04;;;;;;;12.73;8.70;;;;;;;8.84;87.44;98404.16;1697706;84;21478;-72
2022/11/01 06:12:31;;;;;;;12.80;8.35;;;;;;;8.74;87.55;98400.81;1675128;84;21004;-72
2022/11/01 06:14:57;;;;;;;11.35;7.72;;;;;;;8.72;87.33;98395.98;1733085;81;21128;-72
2022/11/01 06:17:24;;;;;;;12.68;7.95;;;;;;;8.67;87.48;98408.39;1746211;81;20977;-72
2022/11/01 06:19:50;;;;;;;13.10;8.50;;;;;;;8.64;87.63;98402.70;1752324;81;20972;-72
2022/11/01 06:22:17;;;;;;;12.93;8.48;;;;;;;8.65;87.65;98399.63;1746217;81;20976;-72
2022/11/01 06:24:43;;;;;;;13.72;7.90;;;;;;;8.66;87.94;98389.03;1726802;81;21406;-72
2022/11/01 06:27:10;;;;;;;10.85;7.35;;;;;;;8.71;87.91;98399.52;1696665;84;21002;-72
2022/11/01 06:29:36;;;;;;;12.68;7.83;;;;;;;8.73;87.64;98400.39;1695832;84;20992;-73
2022/11/01 06:32:04;;;;;;;12.23;8.23;;;;;;;8.72;88.10;98397.30;1705009;83;21402;-73
2022/11/01 06:34:30;;;;;;;12.40;7.95;;;;;;;8.71;87.96;98396.44;1702620;83;21057;-71
2022/11/01 06:36:57;;;;;;;10.10;7.20;;;;;;;8.70;88.03;98401.75;1711941;83;20972;-71
2022/11/01 06:39:24;;;;;;;13.13;7.10;;;;;;;8.73;88.04;98399.06;1700575;83;21365;-72
2022/11/01 06:41:51;;;;;;;13.28;7.92;;;;;;;8.78;87.87;98400.30;1701693;83;21303;-73
2022/11/01 06:44:18;;;;;;;11.40;7.65;;;;;;;8.82;87.94;98404.21;1707104;83;20971;-72
2022/11/01 06:46:44;;;;;;;11.38;7.30;;;;;;;8.88;88.14;98396.61;1704812;83;20991;-73
2022/11/01 06:49:11;;;;;;;12.03;7.47;;;;;;;8.95;88.00;98398.27;1709375;83;20945;-73
2022/11/01 06:51:37;;;;;;;14.63;7.10;;;;;;;9.02;87.68;98399.05;1704134;83;21003;-73
2022/11/01 06:54:04;;;;;;;11.53;6.87;;;;;;;9.05;87.45;98400.77;1710711;83;20952;-72
2022/11/01 06:56:31;;;;;;;9.75;7.60;;;;;;;9.08;87.52;98392.33;1699301;83;21429;-73
2022/11/01 06:58:59;;;;;;;9.85;7.08;;;;;;;9.17;87.46;98393.08;1708524;83;21755;-73
2022/11/01 07:01:27;;;;;;;10.48;6.92;;;;;;;9.23;87.51;98392.49;1694462;83;21017;-74
2022/11/01 07:03:53;;;;;;;12.30;7.08;;;;;;;9.31;87.47;98396.35;1695782;84;20961;-73
2022/11/01 07:06:23;;;;;;;10.93;7.10;;;;;;;9.42;87.62;98386.02;1704679;83;21029;-73
2022/11/01 07:08:50;;;;;;;9.83;7.03;;;;;;;9.53;87.58;98383.16;1701881;83;22157;-73
2022/11/01 07:11:16;;;;;;;13.35;6.30;;;;;;;9.66;87.61;98379.81;1716136;83;21402;-73
2022/11/01 07:13:43;;;;;;;9.83;6.67;;;;;;;9.79;87.85;98387.94;1707681;83;21008;-73
2022/11/01 07:16:09;;;;;;;11.25;7.47;;;;;;;9.98;87.79;98387.57;1717831;83;20972;-73
2022/11/01 07:18:36;;;;;;;11.12;6.70;;;;;;;10.08;87.23;98387.79;1700459;83;20981;-73
2022/11/01 07:21:03;;;;;;;11.20;7.25;;;;;;;10.19;87.22;98384.03;1717510;83;21051;-73
2022/11/01 07:23:31;;;;;;;14.30;7.03;;;;;;;10.33;87.28;98389.91;1694784;83;20990;-73
2022/11/01 07:25:57;;;;;;;9.90;6.72;;;;;;;10.42;86.88;98383.52;1700708;83;21048;-73
2022/11/01 07:28:25;;;;;;;11.78;7.25;;;;;;;10.53;86.92;98383.31;1708894;83;21414;-73
2022/11/01 07:30:54;;;;;;;10.58;7.12;;;;;;;10.61;86.51;98394.62;1701583;83;20996;-72
2022/11/01 07:33:21;;;;;;;11.35;6.87;;;;;;;10.67;86.17;98385.19;1698181;83;21005;-72
2022/11/01 07:35:48;;;;;;;8.53;6.70;;;;;;;10.77;86.66;98384.53;1697818;83;21466;-72
2022/11/01 07:38:15;;;;;;;10.50;6.90;;;;;;;10.91;86.52;98381.53;1695664;83;21093;-72
2022/11/01 07:40:43;;;;;;;12.58;7.87;;;;;;;11.00;86.20;98377.77;1688345;83;21047;-72
2022/11/01 07:43:10;;;;;;;11.50;7.50;;;;;;;11.05;85.43;98379.84;1673689;85;21062;-73
2022/11/01 07:45:37;;;;;;;13.00;6.95;;;;;;;11.08;84.97;98377.57;1695935;83;21165;-72
2022/11/01 07:48:09;;;;;;;13.80;7.47;;;;;;;11.10;84.91;98371.79;1693539;83;21000;-72
2022/11/01 07:50:38;;;;;;;14.07;8.68;;;;;;;11.19;85.14;98362.27;1682045;84;21521;-71
2022/11/01 07:53:13;;;;;;;15.28;9.00;;;;;;;11.27;84.49;98366.05;1682247;84;21059;-69
2022/11/01 07:55:44;;;;;;;12.10;8.30;;;;;;;11.30;83.82;98355.80;1679975;84;20960;-71
2022/11/01 07:58:14;;;;;;;13.88;9.80;;;;;;;11.38;84.08;98367.54;1680822;84;20993;-71
2022/11/01 08:00:42;;;;;;;13.65;8.80;;;;;;;11.41;84.02;98364.34;1680979;84;20997;-70
2022/11/01 08:03:18;;;;;;;16.17;9.10;;;;;;;11.47;84.19;98373.45;1682338;84;21056;-70
2022/11/01 08:05:47;;;;;;;14.80;9.25;;;;;;;11.51;83.85;98373.38;1680965;84;21050;-70
2022/11/01 08:08:15;;;;;;;15.93;9.65;;;;;;;11.59;84.04;98374.05;1695119;83;21024;-70
2022/11/01 08:10:42;;;;;;;17.70;10.40;;;;;;;11.65;83.32;98365.91;1690696;83;20999;-70
2022/11/01 08:13:24;;;;;;;15.38;9.75;;;;;;;11.68;83.21;98367.16;1672476;85;21040;-70
2022/11/01 08:15:52;;;;;;;18.82;10.80;;;;;;;11.74;83.11;98366.09;1667334;85;21439;-70
2022/11/01 08:18:23;;;;;;;19.10;10.80;;;;;;;11.76;82.87;98369.59;1666242;86;21439;-71
2022/11/01 08:21:17;;;;;;;21.75;11.00;;;;;;;11.81;82.46;98363.70;1668066;85;21021;-70
2022/11/01 08:23:41;;;;;;;23.20;12.53;;;;;;;11.82;82.45;98361.45;1786430;80;21078;-71
2022/11/01 08:26:08;;;;;;;22.50;11.73;;;;;;;11.85;82.62;98357.39;1788619;79;20983;-71
2022/11/01 08:28:34;;;;;;;31.10;13.78;;;;;;;11.87;82.72;98357.31;1790771;79;21007;-71
2022/11/01 08:31:07;;;;;;;31.35;14.70;;;;;;;11.89;82.22;98360.81;1790689;79;20944;-71
2022/11/01 08:33:34;;;;;;;30.10;14.75;;;;;;;11.88;82.37;98363.91;1790599;79;21048;-70
2022/11/01 08:36:01;;;;;;;34.18;14.68;;;;;;;11.91;82.14;98356.31;1785649;80;21047;-70
2022/11/01 08:38:30;;;;;;;26.35;14.20;;;;;;;11.93;82.44;98362.47;1790045;79;20996;-71
2022/11/01 08:40:56;;;;;;;25.97;14.13;;;;;;;12.02;82.77;98363.98;1787845;78;21067;-70
2022/11/01 08:43:22;;;;;;;34.88;16.15;;;;;;;12.16;82.61;98360.94;1767460;80;21425;-70
2022/11/01 08:45:49;;;;;;;27.35;14.73;;;;;;;12.25;82.61;98360.66;1786559;80;20952;-70
2022/11/01 08:48:16;;;;;;;30.00;14.60;;;;;;;12.32;82.56;98364.00;1789966;80;21079;-71
2022/11/01 08:50:42;;;;;;;25.15;14.65;;;;;;;12.36;81.76;98360.78;1786764;79;21010;-68
2022/11/01 08:53:12;;;;;;;27.87;15.45;;;;;;;12.38;81.73;98357.16;1791780;79;20940;-69
2022/11/01 08:55:40;;;;;;;35.98;15.75;;;;;;;12.40;81.58;98357.11;1790244;78;20967;-68
2022/11/01 08:58:07;;;;;;;25.02;13.60;;;;;;;12.36;81.40;98351.03;1790009;78;21015;-69
2022/11/01 09:00:37;;;;;;;27.77;14.63;;;;;;;12.35;81.11;98344.43;1789889;79;21023;-69
2022/11/01 09:03:04;;;;;;;26.50;14.38;;;;;;;12.39;80.91;98351.39;1788404;79;20987;-69
2022/11/01 09:05:32;;;;;;;27.02;14.80;;;;;;;12.40;80.82;98343.83;1789971;80;20939;-68
2022/11/01 09:08:04;;;;;;;28.87;14.70;;;;;;;12.39;80.47;98351.39;1789796;79;20944;-68
2022/11/01 09:10:32;;;;;;;25.12;12.93;;;;;;;12.37;80.14;98352.77;1789239;80;20960;-68
2022/11/01 09:13:01;;;;;;;26.62;13.88;;;;;;;12.34;80.29;98342.22;1789947;80;21003;-69
2022/11/01 09:15:30;;;;;;;25.32;13.08;;;;;;;12.36;79.95;98344.39;1788907;80;20984;-69
2022/11/01 09:17:56;;;;;;;23.70;12.98;;;;;;;12.41;80.56;98350.42;1791012;80;21012;-69
2022/11/01 09:20:27;;;;;;;26.05;13.28;;;;;;;12.45;80.31;98345.88;1790687;78;20949;-69
2022/11/01 09:22:54;;;;;;;25.50;12.95;;;;;;;12.49;80.11;98336.01;1714093;83;21020;-68
2022/11/01 09:25:23;;;;;;;23.22;12.63;;;;;;;12.51;80.05;98340.36;1715736;83;21429;-68
2022/11/01 09:27:52;;;;;;;21.80;12.47;;;;;;;12.60;80.43;98341.88;1762688;80;20976;-69
2022/11/01 09:30:20;;;;;;;26.50;13.68;;;;;;;12.65;80.53;98337.72;1750148;80;21020;-69
2022/11/01 09:32:48;;;;;;;23.22;13.72;;;;;;;12.70;79.83;98334.45;1730547;82;21045;-68
2022/11/01 09:35:19;;;;;;;25.23;12.75;;;;;;;12.77;80.19;98336.45;1726510;81;21004;-69
2022/11/01 09:37:47;;;;;;;24.02;13.15;;;;;;;12.84;79.97;98332.69;1730861;82;21009;-69
2022/11/01 09:40:15;;;;;;;30.25;14.43;;;;;;;12.92;79.29;98331.09;1728948;82;20995;-68
2022/11/01 09:42:44;;;;;;;22.73;13.30;;;;;;;12.98;79.67;98328.22;1735136;82;22369;-69
2022/11/01 09:45:20;;;;;;;25.85;12.75;;;;;;;13.08;79.69;98330.08;1748907;80;21012;-69
2022/11/01 09:47:50;;;;;;;25.00;13.15;;;;;;;13.18;79.34;98328.88;1748148;81;21039;-69
2022/11/01 09:50:23;;;;;;;22.93;11.15;;;;;;;13.27;78.85;98329.00;1731986;82;21044;-69
2022/11/01 09:52:53;;;;;;;20.62;11.78;;;;;;;13.32;78.69;98325.71;1730452;82;20951;-69
2022/11/01 09:55:44;;;;;;;18.98;12.33;;;;;;;13.41;78.75;98321.00;1720453;82;20958;-69
2022/11/01 09:58:50;;;;;;;19.52;12.50;;;;;;;13.47;77.69;98314.14;1728930;82;21039;-69
2022/11/01 10:01:42;;;;;;;23.62;12.15;;;;;;;13.58;78.40;98311.95;1731282;81;21417;-68
2022/11/01 10:04:44;;;;;;;21.00;10.32;;;;;;;13.64;77.16;98315.30;1752709;80;21064;-68
2022/11/01 10:07:30;;;;;;;23.05;12.20;;;;;;;13.69;77.46;98313.34;1750800;80;21445;-69
2022/11/01 10:10:20;;;;;;;20.72;11.68;;;;;;;13.79;77.34;98317.39;1753404;80;21402;-68
2022/11/01 10:13:18;;;;;;;25.15;13.10;;;;;;;13.89;77.22;98317.92;1749396;80;20964;-68
2022/11/01 10:16:02;;;;;;;17.95;10.30;;;;;;;14.00;75.74;98314.86;1738794;81;21430;-68
2022/11/01 10:18:40;;;;;;;21.02;11.48;;;;;;;14.09;76.61;98313.62;1731767;81;21039;-68
2022/11/01 10:21:13;;;;;;;17.23;10.00;;;;;;;14.14;76.27;98311.65;1731104;81;21028;-69
2022/11/01 10:23:52;;;;;;;17.98;11.00;;;;;;;14.14;74.81;98306.32;1731876;81;21454;-69
2022/11/01 10:26:30;;;;;;;18.45;11.38;;;;;;;14.18;74.47;98304.39;1728456;81;21000;-69
2022/11/01 10:29:11;;;;;;;15.98;10.38;;;;;;;14.43;74.23;98304.75;1748900;80;21497;-68
2022/11/01 10:31:44;;;;;;;16.93;10.90;;;;;;;15.13;74.11;98300.11;1754491;80;21068;-69
2022/11/01 10:34:29;;;;;;;20.15;10.58;;;;;;;15.91;72.71;98295.30;1762531;80;21083;-69
2022/11/01 10:37:28;;;;;;;15.55;10.13;;;;;;;16.66;68.04;98286.91;1757417;80;21044;-68
2022/11/01 10:40:00;;;;;;;19.48;10.23;;;;;;;17.11;66.34;98286.87;1751468;81;21019;-67
2022/11/01 10:42:29;;;;;;;18.05;10.98;;;;;;;17.85;67.17;98287.91;1720096;83;21602;-68
2022/11/01 10:45:00;;;;;;;15.40;9.95;;;;;;;18.47;64.32;98281.83;1724164;80;21398;-72
2022/11/01 10:47:27;;;;;;;16.65;10.78;;;;;;;19.09;64.25;98277.84;1753167;81;21012;-72
2022/11/01 10:50:05;;;;;;;17.62;11.30;;;;;;;20.30;59.61;98270.37;1730822;81;21032;-69
2022/11/01 10:53:08;;;;;;;19.62;10.63;;;;;;;20.30;59.61;98270.37;1760841;80;21036;-74
2022/11/01 10:55:46;;;;;;;18.77;11.63;;;;;;;20.84;55.69;98261.02;1750723;81;21004;-74
2022/11/01 10:58:42;;;;;;;18.25;11.68;;;;;;;21.54;56.59;98262.19;1751901;80;21481;-75
2022/11/01 11:01:14;;;;;;;22.10;11.95;;;;;;;21.70;53.64;98260.58;1659681;84;21066;-74
2022/11/01 11:03:43;;;;;;;17.50;11.35;;;;;;;21.94;52.89;98247.20;1700462;83;21062;-74
2022/11/01 11:06:14;;;;;;;23.87;11.55;;;;;;;22.43;52.04;98248.63;1735032;80;21473;-75
2022/11/01 11:08:45;;;;;;;20.62;11.73;;;;;;;22.81;52.77;98240.84;1788803;79;21054;-82
2022/11/01 11:11:15;;;;;;;18.17;12.07;;;;;;;23.15;50.57;98237.84;1757628;79;21054;-70
2022/11/01 11:13:47;;;;;;;19.82;13.15;;;;;;;23.14;47.62;98235.66;1789847;80;21019;-74
2022/11/01 11:16:41;;;;;;;23.57;12.70;;;;;;;23.30;48.29;98231.74;1786416;79;20999;-74
2022/11/01 11:19:18;;;;;;;20.90;13.08;;;;;;;23.43;45.60;98224.42;1783109;78;21007;-74
2022/11/01 11:21:52;;;;;;;21.75;12.93;;;;;;;23.57;47.92;98228.72;1785025;79;21071;-74
2022/11/01 11:24:29;;;;;;;19.60;12.70;;;;;;;23.37;47.65;98236.22;1787587;79;21036;-72
2022/11/01 11:26:56;;;;;;;20.05;12.33;;;;;;;23.24;46.01;98231.72;1787758;79;20999;-72
2022/11/01 11:29:31;;;;;;;22.07;13.55;;;;;;;23.24;47.54;98233.59;1786267;79;21007;-72
2022/11/01 11:32:04;;;;;;;19.57;12.88;;;;;;;23.23;48.52;98235.42;1786214;80;21480;-72
2022/11/01 11:34:38;;;;;;;22.13;12.93;;;;;;;23.43;46.73;98235.72;1789770;80;21047;-73
2022/11/01 11:37:08;;;;;;;;;;;;;;;23.33;47.24;98240.50;1790623;78;20980;-73
2022/11/01 11:39:40;;;;;;;17.05;12.68;;;;;;;23.32;46.12;98241.94;1789546;79;20353;-73
2022/11/01 11:42:22;;;;;;;20.57;12.75;;;;;;;22.84;46.46;98230.30;1788430;79;21039;-73
2022/11/01 11:45:15;;;;;;;21.68;12.10;;;;;;;22.81;47.22;98235.92;1788203;79;21007;-73
2022/11/01 11:47:45;;;;;;;17.87;12.05;;;;;;;22.55;45.76;98243.66;1755547;80;21055;-73
2022/11/01 11:50:32;;;;;;;19.87;11.97;;;;;;;22.65;48.39;98237.57;1751478;80;21036;-73
2022/11/01 11:53:16;;;;;;;16.65;12.03;;;;;;;22.86;47.34;98229.67;1713641;83;21031;-73
2022/11/01 11:55:55;;;;;;;21.93;12.10;;;;;;;22.33;48.37;98226.83;1712524;82;21048;-73
2022/11/01 11:58:35;;;;;;;18.25;12.07;;;;;;;21.87;48.77;98232.42;1711884;83;21466;-72